createdAt,value
2018-11-12T00:00:45.455Z,10.81
2018-11-12T00:03:13.047Z,10.83
2018-11-12T00:05:40.513Z,10.81
2018-11-12T00:08:08.347Z,10.81
2018-11-12T00:10:35.555Z,10.81
2018-11-12T00:13:02.736Z,10.80
2018-11-12T00:15:29.913Z,10.78
2018-11-12T00:17:57.087Z,10.78
2018-11-12T00:20:24.171Z,10.77
2018-11-12T00:22:51.276Z,10.78
2018-11-12T00:25:18.451Z,10.79
2018-11-12T00:27:45.684Z,10.76
2018-11-12T00:30:14.335Z,10.73
2018-11-12T00:32:42.357Z,10.66
2018-11-12T00:35:10.169Z,10.69
2018-11-12T00:37:37.337Z,10.69
2018-11-12T00:40:05.666Z,10.62
2018-11-12T00:42:32.763Z,10.65
2018-11-12T00:45:00.080Z,10.60
2018-11-12T00:47:27.308Z,10.60
2018-11-12T00:49:54.476Z,10.57
2018-11-12T00:52:21.535Z,10.56
2018-11-12T00:54:48.628Z,10.54
2018-11-12T00:57:15.792Z,10.50
2018-11-12T00:59:42.957Z,10.48
2018-11-12T01:02:10.131Z,10.43
2018-11-12T01:04:37.468Z,10.41
2018-11-12T01:07:04.584Z,10.44
2018-11-12T01:09:31.681Z,10.42
2018-11-12T01:11:58.779Z,10.39
2018-11-12T01:14:25.879Z,10.36
2018-11-12T01:16:53.363Z,10.37
2018-11-12T01:19:20.520Z,10.35
2018-11-12T01:21:47.737Z,10.33
2018-11-12T01:24:14.912Z,10.33
2018-11-12T01:26:42.002Z,10.33
2018-11-12T01:29:09.067Z,10.29
2018-11-12T01:31:36.578Z,10.25
2018-11-12T01:34:03.972Z,10.25
2018-11-12T01:36:31.064Z,10.24
2018-11-12T01:38:58.321Z,10.21
2018-11-12T01:41:25.379Z,10.21
2018-11-12T01:43:52.440Z,10.21
2018-11-12T01:46:19.872Z,10.24
2018-11-12T01:48:47.024Z,10.22
2018-11-12T01:51:14.199Z,10.20
2018-11-12T01:53:41.368Z,10.19
2018-11-12T01:56:08.672Z,10.17
2018-11-12T01:58:36.028Z,10.18
2018-11-12T02:01:03.133Z,10.15
2018-11-12T02:03:30.281Z,10.15
2018-11-12T02:05:57.430Z,10.17
2018-11-12T02:08:24.946Z,10.19
2018-11-12T02:10:52.344Z,10.16
2018-11-12T02:13:19.481Z,10.20
2018-11-12T02:15:46.655Z,10.16
2018-11-12T02:18:13.940Z,10.17
2018-11-12T02:20:41.136Z,10.16
2018-11-12T02:23:08.308Z,10.14
2018-11-12T02:25:35.391Z,10.14
2018-11-12T02:28:02.491Z,10.11
2018-11-12T02:30:35.249Z,10.10
2018-11-12T02:33:02.408Z,10.11
2018-11-12T02:35:29.559Z,10.10
2018-11-12T02:37:56.660Z,10.12
2018-11-12T02:40:23.846Z,10.23
2018-11-12T02:42:50.933Z,10.11
2018-11-12T02:45:18.095Z,10.07
2018-11-12T02:47:45.576Z,10.03
2018-11-12T02:50:14.053Z,9.97
2018-11-12T02:52:41.511Z,10.05
2018-11-12T02:55:10.092Z,10.35
2018-11-12T02:57:37.400Z,10.37
2018-11-12T03:00:07.985Z,10.29
2018-11-12T03:02:35.127Z,10.60
2018-11-12T03:05:02.510Z,10.40
2018-11-12T03:07:29.691Z,10.13
2018-11-12T03:09:56.860Z,10.07
2018-11-12T03:12:24.012Z,10.04
2018-11-12T03:14:51.195Z,10.00
2018-11-12T03:17:18.332Z,9.98
2018-11-12T03:19:45.477Z,9.97
2018-11-12T03:22:12.740Z,9.96
2018-11-12T03:24:39.945Z,9.97
2018-11-12T03:27:07.044Z,9.95
2018-11-12T03:29:34.103Z,9.95
2018-11-12T03:32:01.229Z,9.98
2018-11-12T03:34:28.378Z,10.01
2018-11-12T03:36:55.461Z,10.02
2018-11-12T03:39:22.610Z,9.98
2018-11-12T03:41:49.689Z,10.02
2018-11-12T03:44:16.860Z,10.03
2018-11-12T03:46:43.952Z,9.98
2018-11-12T03:49:11.185Z,9.94
2018-11-12T03:51:38.268Z,9.96
2018-11-12T03:54:05.473Z,9.98
2018-11-12T03:56:32.581Z,9.98
2018-11-12T03:58:59.648Z,10.08
2018-11-12T04:01:32.721Z,10.57
2018-11-12T04:03:59.780Z,10.74
2018-11-12T04:06:26.868Z,10.36
2018-11-12T04:08:53.952Z,10.53
2018-11-12T04:11:21.132Z,10.35
2018-11-12T04:13:48.396Z,10.20
2018-11-12T04:16:15.594Z,10.28
2018-11-12T04:18:42.635Z,10.44
2018-11-12T04:21:09.695Z,10.34
2018-11-12T04:23:36.996Z,10.52
2018-11-12T04:26:04.134Z,10.89
2018-11-12T04:28:31.238Z,11.03
2018-11-12T04:30:58.761Z,10.76
2018-11-12T04:33:25.840Z,10.81
2018-11-12T04:35:52.911Z,10.89
2018-11-12T04:38:20.555Z,11.09
2018-11-12T04:40:47.635Z,11.16
2018-11-12T04:43:14.801Z,11.10
2018-11-12T04:45:41.930Z,10.87
2018-11-12T04:48:08.972Z,10.67
2018-11-12T04:50:36.144Z,10.76
2018-11-12T04:53:03.229Z,10.82
2018-11-12T04:55:30.373Z,10.88
2018-11-12T04:57:57.577Z,11.19
2018-11-12T05:00:26.803Z,11.07
2018-11-12T05:02:55.325Z,11.12
2018-11-12T05:05:25.284Z,11.12
2018-11-12T05:07:53.972Z,10.96
2018-11-12T05:10:23.750Z,11.12
2018-11-12T05:12:51.973Z,10.85
2018-11-12T05:15:20.244Z,11.24
2018-11-12T05:17:47.399Z,10.94
2018-11-12T05:20:17.512Z,10.93
2018-11-12T05:22:44.816Z,10.63
2018-11-12T05:25:11.891Z,10.69
2018-11-12T05:27:45.955Z,10.82
2018-11-12T05:30:15.223Z,10.97
2018-11-12T05:32:42.529Z,10.99
2018-11-12T05:35:09.876Z,11.25
2018-11-12T05:37:36.964Z,11.13
2018-11-12T05:40:06.363Z,10.88
2018-11-12T05:42:33.444Z,11.02
2018-11-12T05:45:00.591Z,10.90
2018-11-12T05:47:27.961Z,11.00
2018-11-12T05:49:55.031Z,11.01
2018-11-12T05:52:22.208Z,10.77
2018-11-12T05:54:49.591Z,11.14
2018-11-12T05:57:23.756Z,11.36
2018-11-12T05:59:51.264Z,11.27
2018-11-12T06:02:18.343Z,11.56
2018-11-12T06:04:45.586Z,11.45
2018-11-12T06:07:12.914Z,11.32
2018-11-12T06:09:39.984Z,11.04
2018-11-12T06:12:07.160Z,10.68
2018-11-12T06:14:34.375Z,11.12
2018-11-12T06:17:01.459Z,11.36
2018-11-12T06:19:35.456Z,11.36
2018-11-12T06:22:02.630Z,11.34
2018-11-12T06:24:29.691Z,11.50
2018-11-12T06:26:56.795Z,11.26
2018-11-12T06:29:23.852Z,11.11
2018-11-12T06:31:51.003Z,11.11
2018-11-12T06:34:18.187Z,11.25
2018-11-12T06:36:45.374Z,11.15
2018-11-12T06:39:12.427Z,11.17
2018-11-12T06:41:39.531Z,11.10
2018-11-12T06:44:08.029Z,11.30
2018-11-12T06:46:35.176Z,11.14
2018-11-12T06:49:02.345Z,11.28
2018-11-12T06:51:29.420Z,11.37
2018-11-12T06:53:56.491Z,11.39
2018-11-12T06:56:23.660Z,11.56
2018-11-12T06:58:50.808Z,11.23
2018-11-12T07:01:17.960Z,11.19
2018-11-12T07:03:45.044Z,11.25
2018-11-12T07:06:12.321Z,11.33
2018-11-12T07:08:39.397Z,11.28
2018-11-12T07:11:06.479Z,11.28
2018-11-12T07:13:39.812Z,11.07
2018-11-12T07:16:13.092Z,11.16
2018-11-12T07:18:46.376Z,11.04
2018-11-12T07:21:13.427Z,11.28
2018-11-12T07:23:40.576Z,11.64
2018-11-12T07:26:07.721Z,11.60
2018-11-12T07:28:34.803Z,11.66
2018-11-12T07:31:09.223Z,11.51
2018-11-12T07:33:36.260Z,11.46
2018-11-12T07:36:03.320Z,11.65
2018-11-12T07:38:30.417Z,11.76
2018-11-12T07:40:57.509Z,11.62
2018-11-12T07:43:24.648Z,11.80
2018-11-12T07:45:51.832Z,11.73
2018-11-12T07:48:18.884Z,11.86
2018-11-12T07:50:46.074Z,11.69
2018-11-12T07:53:13.269Z,11.50
2018-11-12T07:55:40.324Z,11.41
2018-11-12T07:58:07.457Z,11.48
2018-11-12T08:00:34.623Z,11.63
2018-11-12T08:03:06.052Z,11.72
2018-11-12T08:05:33.458Z,11.41
2018-11-12T08:08:00.936Z,11.25
2018-11-12T08:10:28.064Z,11.71
2018-11-12T08:12:55.148Z,12.08
2018-11-12T08:15:22.263Z,11.93
2018-11-12T08:17:49.357Z,11.72
2018-11-12T08:20:19.627Z,12.04
2018-11-12T08:22:47.718Z,12.02
2018-11-12T08:25:14.879Z,11.71
2018-11-12T08:27:42.544Z,11.78
2018-11-12T08:30:16.400Z,11.94
2018-11-12T08:32:44.370Z,12.06
2018-11-12T08:35:12.143Z,12.00
2018-11-12T08:37:39.220Z,12.04
2018-11-12T08:40:08.499Z,11.79
2018-11-12T08:42:35.629Z,11.81
2018-11-12T08:45:03.507Z,12.06
2018-11-12T08:47:31.180Z,12.24
2018-11-12T08:49:58.582Z,12.10
2018-11-12T08:52:25.588Z,11.92
2018-11-12T08:54:53.004Z,11.87
2018-11-12T08:57:20.060Z,11.88
2018-11-12T08:59:47.300Z,11.93
2018-11-12T09:02:14.304Z,11.91
2018-11-12T09:04:41.382Z,11.73
2018-11-12T09:07:08.699Z,11.97
2018-11-12T09:09:35.763Z,11.97
2018-11-12T09:12:02.826Z,12.04
2018-11-12T09:14:29.993Z,12.01
2018-11-12T09:16:57.183Z,11.94
2018-11-12T09:19:24.253Z,11.61
2018-11-12T09:21:51.336Z,11.71
2018-11-12T09:24:18.490Z,11.52
2018-11-12T09:26:45.568Z,11.62
2018-11-12T09:29:12.679Z,11.60
2018-11-12T09:31:39.973Z,11.41
2018-11-12T09:34:07.108Z,11.36
2018-11-12T09:36:34.220Z,11.52
2018-11-12T09:39:01.560Z,11.68
2018-11-12T09:41:28.647Z,11.59
2018-11-12T09:43:55.769Z,11.96
2018-11-12T09:46:23.095Z,11.60
2018-11-12T09:48:50.373Z,12.26
2018-11-12T09:51:17.377Z,12.23
2018-11-12T09:53:44.886Z,12.20
2018-11-12T09:56:11.916Z,12.44
2018-11-12T09:58:38.975Z,12.26
2018-11-12T10:01:06.518Z,12.14
2018-11-12T10:03:34.742Z,12.26
2018-11-12T10:06:01.716Z,11.88
2018-11-12T10:08:32.097Z,11.49
2018-11-12T10:11:01.344Z,11.36
2018-11-12T10:13:28.180Z,11.56
2018-11-12T10:15:55.963Z,11.95
2018-11-12T10:18:21.037Z,11.96
2018-11-12T10:20:48.135Z,12.24
2018-11-12T10:23:15.411Z,12.40
2018-11-12T10:25:42.725Z,12.01
2018-11-12T10:28:09.908Z,12.12
2018-11-12T10:30:36.964Z,12.05
2018-11-12T10:33:04.449Z,11.99
2018-11-12T10:35:31.505Z,11.93
2018-11-12T10:37:58.620Z,11.86
2018-11-12T10:40:26.151Z,11.84
2018-11-12T10:42:53.453Z,11.84
2018-11-12T10:45:20.590Z,12.08
2018-11-12T10:47:49.102Z,12.21
2018-11-12T10:50:16.239Z,11.94
2018-11-12T10:52:44.179Z,12.16
2018-11-12T10:55:13.410Z,12.06
2018-11-12T10:57:40.858Z,12.14
2018-11-12T11:00:17.418Z,12.13
2018-11-12T11:02:50.319Z,12.01
2018-11-12T11:05:17.380Z,11.92
2018-11-12T11:07:44.447Z,12.06
2018-11-12T11:10:11.788Z,11.95
2018-11-12T11:12:38.876Z,11.67
2018-11-12T11:15:05.980Z,11.95
2018-11-12T11:17:33.155Z,12.12
2018-11-12T11:20:00.203Z,12.05
2018-11-12T11:22:27.289Z,12.20
2018-11-12T11:24:54.436Z,11.95
2018-11-12T11:27:21.577Z,11.98
2018-11-12T11:29:48.736Z,11.88
2018-11-12T11:32:15.836Z,12.03
2018-11-12T11:34:43.062Z,11.94
2018-11-12T11:37:10.128Z,12.07
2018-11-12T11:39:37.838Z,12.06
2018-11-12T11:42:05.200Z,11.83
2018-11-12T11:44:32.392Z,11.93
2018-11-12T11:46:59.720Z,11.83
2018-11-12T11:49:26.787Z,11.93
2018-11-12T11:51:53.855Z,11.79
2018-11-12T11:54:21.175Z,11.93
2018-11-12T11:56:48.491Z,12.08
2018-11-12T11:59:15.564Z,12.04
2018-11-12T12:01:42.745Z,12.04
2018-11-12T12:04:09.891Z,12.05
2018-11-12T12:06:37.045Z,12.10
2018-11-12T12:09:06.657Z,12.01
2018-11-12T12:11:33.795Z,11.96
2018-11-12T12:14:00.879Z,11.98
2018-11-12T12:16:28.291Z,12.20
2018-11-12T12:18:57.278Z,11.89
2018-11-12T12:21:24.500Z,12.09
2018-11-12T12:23:51.615Z,11.97
2018-11-12T12:26:19.032Z,11.80
2018-11-12T12:28:46.166Z,11.87
2018-11-12T12:31:13.621Z,11.96
2018-11-12T12:33:40.754Z,11.73
2018-11-12T12:36:07.893Z,11.81
2018-11-12T12:38:35.006Z,11.70
2018-11-12T12:41:02.539Z,11.97
2018-11-12T12:43:29.603Z,11.94
2018-11-12T12:45:56.802Z,12.09
2018-11-12T12:48:23.928Z,12.05
2018-11-12T12:50:50.999Z,11.88
2018-11-12T12:53:18.152Z,12.13
2018-11-12T12:55:45.321Z,12.16
2018-11-12T12:58:13.022Z,11.83
2018-11-12T13:00:40.271Z,11.98
2018-11-12T13:03:07.467Z,12.13
2018-11-12T13:05:34.545Z,12.46
2018-11-12T13:08:01.615Z,12.10
2018-11-12T13:10:28.701Z,11.92
2018-11-12T13:13:02.805Z,11.94
2018-11-12T13:15:29.881Z,11.85
2018-11-12T13:17:56.960Z,12.04
2018-11-12T13:20:24.680Z,11.85
2018-11-12T13:22:51.773Z,12.29
2018-11-12T13:25:18.861Z,12.59
2018-11-12T13:27:46.576Z,12.40
2018-11-12T13:30:15.467Z,12.31
2018-11-12T13:32:43.215Z,12.42
2018-11-12T13:35:11.703Z,12.53
2018-11-12T13:37:39.168Z,12.44
2018-11-12T13:40:10.260Z,12.60
2018-11-12T13:42:37.505Z,12.80
2018-11-12T13:45:05.436Z,12.76
2018-11-12T13:47:32.671Z,12.73
2018-11-12T13:49:59.748Z,12.60
2018-11-12T13:52:27.150Z,12.89
2018-11-12T13:54:54.240Z,12.73
2018-11-12T13:57:21.341Z,12.89
2018-11-12T13:59:48.581Z,12.87
2018-11-12T14:02:15.714Z,12.96
2018-11-12T14:04:42.849Z,13.17
2018-11-12T14:07:10.008Z,13.05
2018-11-12T14:09:37.071Z,12.87
2018-11-12T14:12:04.813Z,12.98
2018-11-12T14:14:31.907Z,13.10
2018-11-12T14:16:59.092Z,13.03
2018-11-12T14:19:26.232Z,13.26
2018-11-12T14:21:53.407Z,13.06
2018-11-12T14:24:20.474Z,13.23
2018-11-12T14:26:47.568Z,13.40
2018-11-12T14:29:14.632Z,13.18
2018-11-12T14:31:41.848Z,13.40
2018-11-12T14:34:09.014Z,13.04
2018-11-12T14:36:36.177Z,13.00
2018-11-12T14:39:03.816Z,13.05
2018-11-12T14:41:30.976Z,13.16
2018-11-12T14:43:58.208Z,13.24
2018-11-12T14:46:25.312Z,13.12
2018-11-12T14:48:52.563Z,13.24
2018-11-12T14:51:19.627Z,13.32
2018-11-12T14:53:46.868Z,13.41
2018-11-12T14:56:13.968Z,13.51
2018-11-12T14:58:41.283Z,13.30
2018-11-12T15:01:08.464Z,12.90
2018-11-12T15:03:35.660Z,12.95
2018-11-12T15:06:03.109Z,12.82
2018-11-12T15:08:30.274Z,12.89
2018-11-12T15:10:57.606Z,12.91
2018-11-12T15:13:24.857Z,12.72
2018-11-12T15:15:52.281Z,12.87
2018-11-12T15:18:19.384Z,12.94
2018-11-12T15:20:46.619Z,12.99
2018-11-12T15:23:13.765Z,12.87
2018-11-12T15:25:40.956Z,12.90
2018-11-12T15:28:08.024Z,12.73
2018-11-12T15:30:35.123Z,12.40
2018-11-12T15:33:02.227Z,12.73
2018-11-12T15:38:03.392Z,13.17
2018-11-12T15:40:30.453Z,13.20
2018-11-12T15:42:57.585Z,12.98
2018-11-12T15:45:25.181Z,13.10
2018-11-12T15:47:52.424Z,13.20
2018-11-12T15:50:23.085Z,13.26
2018-11-12T15:52:50.192Z,12.79
2018-11-12T15:55:17.384Z,12.95
2018-11-12T15:57:44.758Z,13.12
2018-11-12T16:00:13.420Z,13.11
2018-11-12T16:02:40.571Z,13.09
2018-11-12T16:05:08.544Z,12.83
2018-11-12T16:07:35.629Z,12.60
2018-11-12T16:10:02.984Z,12.44
2018-11-12T16:12:30.135Z,12.35
2018-11-12T16:14:57.293Z,12.38
2018-11-12T16:17:24.592Z,12.45
2018-11-12T16:19:51.879Z,12.31
2018-11-12T16:22:18.963Z,12.23
2018-11-12T16:24:46.533Z,12.25
2018-11-12T16:27:13.701Z,12.09
2018-11-12T16:29:40.793Z,12.29
2018-11-12T16:32:07.872Z,12.53
2018-11-12T16:34:35.545Z,12.18
2018-11-12T16:37:02.748Z,12.03
2018-11-12T16:39:30.069Z,11.94
2018-11-12T16:41:57.161Z,11.92
2018-11-12T16:44:24.360Z,11.90
2018-11-12T16:46:51.431Z,11.79
2018-11-12T16:49:18.844Z,11.77
2018-11-12T16:51:45.939Z,11.84
2018-11-12T16:54:13.932Z,11.77
2018-11-12T16:56:41.004Z,11.73
2018-11-12T16:59:08.109Z,11.79
2018-11-12T17:01:35.258Z,11.75
2018-11-12T17:04:02.388Z,11.66
2018-11-12T17:06:29.519Z,11.63
2018-11-12T17:08:56.870Z,11.59
2018-11-12T17:11:24.420Z,11.63
2018-11-12T17:13:51.607Z,11.56
2018-11-12T17:16:18.779Z,11.53
2018-11-12T17:18:45.943Z,11.50
2018-11-12T17:21:13.053Z,11.48
2018-11-12T17:23:40.304Z,11.42
2018-11-12T17:26:07.528Z,11.42
2018-11-12T17:28:34.898Z,11.45
2018-11-12T17:31:02.277Z,11.41
2018-11-12T17:33:29.331Z,11.36
2018-11-12T17:35:56.466Z,11.35
2018-11-12T17:38:23.535Z,11.37
2018-11-12T17:40:50.600Z,11.28
2018-11-12T17:43:17.832Z,11.28
2018-11-12T17:45:44.923Z,11.27
2018-11-12T17:48:11.992Z,11.27
2018-11-12T17:50:39.236Z,11.43
2018-11-12T17:53:06.317Z,11.31
2018-11-12T17:55:33.717Z,11.33
2018-11-12T17:58:00.921Z,11.26
2018-11-12T18:00:31.750Z,11.19
2018-11-12T18:02:58.808Z,11.21
2018-11-12T18:05:25.996Z,11.22
2018-11-12T18:07:53.347Z,11.29
2018-11-12T18:10:20.321Z,11.29
2018-11-12T18:12:47.485Z,11.15
2018-11-12T18:15:15.936Z,11.46
2018-11-12T18:17:43.301Z,11.51
2018-11-12T18:20:13.644Z,11.30
2018-11-12T18:22:40.725Z,11.24
2018-11-12T18:25:08.732Z,11.31
2018-11-12T18:27:36.315Z,11.16
2018-11-12T18:30:05.377Z,11.12
2018-11-12T18:32:32.999Z,11.07
2018-11-12T18:35:00.345Z,11.15
2018-11-12T18:37:27.468Z,11.27
2018-11-12T18:39:54.780Z,11.19
2018-11-12T18:42:21.964Z,11.18
2018-11-12T18:44:49.108Z,11.00
2018-11-12T18:47:16.224Z,11.02
2018-11-12T18:49:43.852Z,10.99
2018-11-12T18:52:11.270Z,10.97
2018-11-12T18:54:38.517Z,10.89
2018-11-12T18:57:05.713Z,10.93
2018-11-12T18:59:33.877Z,10.92
2018-11-12T19:02:01.215Z,10.86
2018-11-12T19:04:28.461Z,10.84
2018-11-12T19:06:55.805Z,10.85
2018-11-12T19:09:23.113Z,10.81
2018-11-12T19:11:51.217Z,10.80
2018-11-12T19:14:18.492Z,10.81
2018-11-12T19:16:45.844Z,10.76
2018-11-12T19:19:12.937Z,10.73
2018-11-12T19:21:40.071Z,10.80
2018-11-12T19:24:07.701Z,10.74
2018-11-12T19:26:34.778Z,10.71
2018-11-12T19:29:01.907Z,10.72
2018-11-12T19:31:29.011Z,10.76
2018-11-12T19:33:56.105Z,10.75
2018-11-12T19:36:23.204Z,10.74
2018-11-12T19:38:50.314Z,10.76
2018-11-12T19:41:17.721Z,10.78
2018-11-12T19:43:44.807Z,10.79
2018-11-12T19:46:11.885Z,10.75
2018-11-12T19:48:39.260Z,10.77
2018-11-12T19:51:06.709Z,10.74
2018-11-12T19:53:34.324Z,10.73
2018-11-12T19:56:01.672Z,10.74
2018-11-12T19:58:28.749Z,10.73
2018-11-12T20:00:55.845Z,10.73
2018-11-12T20:03:22.945Z,10.75
2018-11-12T20:05:50.037Z,10.75
2018-11-12T20:08:17.422Z,10.71
2018-11-12T20:10:44.512Z,10.73
2018-11-12T20:13:11.676Z,10.72
2018-11-12T20:15:41.057Z,10.76
2018-11-12T20:18:08.532Z,10.66
2018-11-12T20:20:35.962Z,10.63
2018-11-12T20:23:03.108Z,10.66
2018-11-12T20:25:30.413Z,10.64
2018-11-12T20:27:57.989Z,10.69
2018-11-12T20:30:31.029Z,10.66
2018-11-12T20:32:58.169Z,10.63
2018-11-12T20:35:25.239Z,10.60
2018-11-12T20:37:52.329Z,10.58
2018-11-12T20:40:19.448Z,10.59
2018-11-12T20:42:47.514Z,10.57
2018-11-12T20:45:22.928Z,10.54
2018-11-12T20:47:51.355Z,10.62
2018-11-12T20:50:18.708Z,10.55
2018-11-12T20:52:45.994Z,10.55
2018-11-12T20:55:14.148Z,10.52
2018-11-12T20:57:41.696Z,10.57
2018-11-12T21:00:11.621Z,10.59
2018-11-12T21:02:39.358Z,10.58
2018-11-12T21:05:06.711Z,10.58
2018-11-12T21:07:33.807Z,10.60
2018-11-12T21:10:01.084Z,10.58
2018-11-12T21:12:28.549Z,10.54
2018-11-12T21:14:55.937Z,10.58
2018-11-12T21:17:23.133Z,10.52
2018-11-12T21:19:50.257Z,10.51
2018-11-12T21:22:17.448Z,10.51
2018-11-12T21:24:44.528Z,10.50
2018-11-12T21:27:12.003Z,10.46
2018-11-12T21:29:39.204Z,10.45
2018-11-12T21:32:06.484Z,10.43
2018-11-12T21:34:33.832Z,10.37
2018-11-12T21:37:00.938Z,10.36
2018-11-12T21:39:27.979Z,10.37
2018-11-12T21:41:57.290Z,10.32
2018-11-12T21:44:24.704Z,10.32
2018-11-12T21:46:51.768Z,10.31
2018-11-12T21:49:19.272Z,10.27
2018-11-12T21:51:46.339Z,10.23
2018-11-12T21:54:13.894Z,10.22
2018-11-12T21:56:48.199Z,10.18
2018-11-12T21:59:15.429Z,10.17
2018-11-12T22:01:42.808Z,10.17
2018-11-12T22:04:10.072Z,10.17
2018-11-12T22:06:37.151Z,10.12
2018-11-12T22:09:07.224Z,10.14
2018-11-12T22:11:34.315Z,10.11
2018-11-12T22:14:01.464Z,10.13
2018-11-12T22:16:28.783Z,10.13
2018-11-12T22:18:56.053Z,10.14
2018-11-12T22:21:23.166Z,10.27
2018-11-12T22:23:50.288Z,10.19
2018-11-12T22:26:17.548Z,10.13
2018-11-12T22:28:44.642Z,10.11
2018-11-12T22:31:11.968Z,10.09
2018-11-12T22:33:40.352Z,10.04
2018-11-12T22:36:07.487Z,10.02
2018-11-12T22:38:34.985Z,10.00
2018-11-12T22:41:02.424Z,9.98
2018-11-12T22:43:30.148Z,9.98
2018-11-12T22:45:57.398Z,9.95
2018-11-12T22:48:25.299Z,9.96
2018-11-12T22:50:52.991Z,9.97
2018-11-12T22:53:20.072Z,9.98
2018-11-12T22:55:47.355Z,9.99
2018-11-12T22:58:14.543Z,9.91
2018-11-12T23:00:46.635Z,9.95
2018-11-12T23:03:13.763Z,9.93
2018-11-12T23:05:41.083Z,9.92
2018-11-12T23:08:08.265Z,9.94
2018-11-12T23:10:35.580Z,9.93
2018-11-12T23:13:02.643Z,9.99
2018-11-12T23:15:30.114Z,9.91
2018-11-12T23:17:57.215Z,9.91
2018-11-12T23:20:25.757Z,9.93
2018-11-12T23:22:53.447Z,9.91
2018-11-12T23:25:20.601Z,9.87
2018-11-12T23:27:48.487Z,9.92
2018-11-12T23:30:16.917Z,9.88
2018-11-12T23:32:44.124Z,9.92
2018-11-12T23:35:12.637Z,9.87
2018-11-12T23:37:40.648Z,9.83
2018-11-12T23:40:08.829Z,9.80
2018-11-12T23:42:35.968Z,9.82
2018-11-12T23:45:03.860Z,9.77
2018-11-12T23:47:31.016Z,9.71
2018-11-12T23:49:58.464Z,9.73
2018-11-12T23:52:25.664Z,9.66
2018-11-12T23:54:52.752Z,9.69
2018-11-12T23:57:19.854Z,9.66
2018-11-12T23:59:46.940Z,9.71
